Time;durP1;ratioP1;P1;durP2;ratioP2;P2;SDS_P1;SDS_P2;PMS_P1;PMS_P2;Temp;Humidity;BMP_temperature;BMP_pressure;BME280_temperature;BME280_humidity;BME280_pressure;Samples;Min_cycle;Max_cycle;Signal;HPM_P1;HPM_P2
2023/05/15 00:00:23;;;;;;;;;;;;;;;;;;4991855;28;19920;-78
2023/05/15 00:02:48;;;;;;;;;;;;;;;;;;5011782;22;20454;-79
2023/05/15 00:05:16;;;;;;;;;;;;;;;;;;5028560;28;19917;-80
2023/05/15 00:07:41;;;;;;;;;;;;;;;;;;5012295;28;19913;-78
2023/05/15 00:10:07;;;;;;;;;;;;;;;;;;5013238;28;19918;-77
2023/05/15 00:12:32;;;;;;;;;;;;;;;;;;5012851;28;19917;-79
2023/05/15 00:14:58;;;;;;;;;;;;;;;;;;5012388;28;19913;-78
2023/05/15 00:17:23;;;;;;;;;;;;;;;;;;5003045;28;19914;-79
2023/05/15 00:19:56;;;;;;;;;;;;;;;;;;4993745;28;19914;-80
2023/05/15 00:22:21;;;;;;;;;;;;;;;;;;4992824;28;19920;-79
2023/05/15 00:24:47;;;;;;;;;;;;;;;;;;4993832;28;19914;-78
2023/05/15 00:27:12;;;;;;;;;;;;;;;;;;4996256;28;19925;-79
2023/05/15 00:29:38;;;;;;;;;;;;;;;;;;4981896;28;20366;-78
2023/05/15 00:32:04;;;;;;;;;;;;;;;;;;5002544;28;19925;-78
2023/05/15 00:34:30;;;;;;;;;;;;;;;;;;5018726;28;20288;-77
2023/05/15 00:36:56;;;;;;;;;;;;;;;;;;5016478;28;19921;-79
2023/05/15 00:39:22;;;;;;;;;;;;;;;;;;5015067;28;19913;-78
2023/05/15 00:41:47;;;;;;;;;;;;;;;;;;5012262;28;19971;-78
2023/05/15 00:44:15;;;;;;;;;;;;;;;;;;5012031;28;19913;-79
2023/05/15 00:46:41;;;;;;;;;;;;;;;;;;5012107;28;19941;-79
2023/05/15 00:49:12;;;;;;;;;;;;;;;;;;5011209;28;20003;-79
2023/05/15 00:51:38;;;;;;;;;;;;;;;;;;4995302;28;20032;-78
2023/05/15 00:54:03;;;;;;;;;;;;;;;;;;4993689;28;20432;-78
2023/05/15 00:56:29;;;;;;;;;;;;;;;;;;4993849;28;19914;-79
2023/05/15 00:58:54;;;;;;;;;;;;;;;;;;4994501;28;20344;-79
2023/05/15 01:01:20;;;;;;;;;;;;;;;;;;4995852;28;19914;-79
2023/05/15 01:03:45;;;;;;;;;;;;;;;;;;4998451;28;19984;-78
2023/05/15 01:06:11;;;;;;;;;;;;;;;;;;5004821;28;19913;-79
2023/05/15 01:08:36;;;;;;;;;;;;;;;;;;5006763;28;19941;-77
2023/05/15 01:11:02;;;;;;;;;;;;;;;;;;5000911;28;19949;-78
2023/05/15 01:13:27;;;;;;;;;;;;;;;;;;5001633;28;19945;-78
2023/05/15 01:15:53;;;;;;;;;;;;;;;;;;4997578;28;19918;-76
2023/05/15 01:18:21;;;;;;;;;;;;;;;;;;4999578;28;20468;-78
2023/05/15 01:20:46;;;;;;;;;;;;;;;;;;4994787;28;19956;-78
2023/05/15 01:23:12;;;;;;;;;;;;;;;;;;4990639;28;20542;-78
2023/05/15 01:25:38;;;;;;;;;;;;;;;;;;4991712;28;19914;-79
2023/05/15 01:28:05;;;;;;;;;;;;;;;;;;4991818;28;20008;-79
2023/05/15 01:30:30;;;;;;;;;;;;;;;;;;4991679;28;20008;-78
2023/05/15 01:32:56;;;;;;;;;;;;;;;;;;4991705;28;19960;-79
2023/05/15 01:35:21;;;;;;;;;;;;;;;;;;4991957;28;19914;-78
2023/05/15 01:37:48;;;;;;;;;;;;;;;;;;4991842;28;19910;-79
2023/05/15 01:40:15;;;;;;;;;;;;;;;;;;4992757;28;19914;-78
2023/05/15 01:42:40;;;;;;;;;;;;;;;;;;4995323;28;20399;-77
2023/05/15 01:45:06;;;;;;;;;;;;;;;;;;4995675;28;19918;-78
2023/05/15 01:47:31;;;;;;;;;;;;;;;;;;4996078;28;20001;-79
2023/05/15 01:49:59;;;;;;;;;;;;;;;;;;4995137;28;19984;-78
2023/05/15 01:52:25;;;;;;;;;;;;;;;;;;4995354;28;19972;-78
2023/05/15 01:54:50;;;;;;;;;;;;;;;;;;4996102;28;19918;-79
2023/05/15 01:57:16;;;;;;;;;;;;;;;;;;4996031;28;19957;-78
2023/05/15 01:59:41;;;;;;;;;;;;;;;;;;5014364;28;19914;-78
2023/05/15 02:02:07;;;;;;;;;;;;;;;;;;5014350;28;19949;-79
2023/05/15 02:04:32;;;;;;;;;;;;;;;;;;5014711;28;19980;-78
2023/05/15 02:06:58;;;;;;;;;;;;;;;;;;5015855;28;19917;-78
2023/05/15 02:09:26;;;;;;;;;;;;;;;;;;5014406;28;19918;-77
2023/05/15 02:11:51;;;;;;;;;;;;;;;;;;5014261;28;20358;-77
2023/05/15 02:14:17;;;;;;;;;;;;;;;;;;5003373;28;19913;-78
2023/05/15 02:16:42;;;;;;;;;;;;;;;;;;4978528;28;20289;-78
2023/05/15 02:19:08;;;;;;;;;;;;;;;;;;4995940;28;19914;-79
2023/05/15 02:21:33;;;;;;;;;;;;;;;;;;4995742;28;19914;-79
2023/05/15 02:23:58;;;;;;;;;;;;;;;;;;4995730;28;19976;-78
2023/05/15 02:26:24;;;;;;;;;;;;;;;;;;4994702;28;19937;-77
2023/05/15 02:28:50;;;;;;;;;;;;;;;;;;4999603;28;20344;-79
2023/05/15 02:31:16;;;;;;;;;;;;;;;;;;5014149;28;19913;-78
2023/05/15 02:33:41;;;;;;;;;;;;;;;;;;5013815;28;20011;-78
2023/05/15 02:36:07;;;;;;;;;;;;;;;;;;4997803;28;19913;-79
2023/05/15 02:38:32;;;;;;;;;;;;;;;;;;4997473;28;19920;-79
2023/05/15 02:40:58;;;;;;;;;;;;;;;;;;5015140;28;19948;-79
2023/05/15 02:43:23;;;;;;;;;;;;;;;;;;5014981;28;19967;-80
2023/05/15 02:45:48;;;;;;;;;;;;;;;;;;4997615;28;19937;-79
2023/05/15 02:48:16;;;;;;;;;;;;;;;;;;4994201;28;19924;-81
2023/05/15 02:50:41;;;;;;;;;;;;;;;;;;4995100;28;19917;-79
2023/05/15 02:53:09;;;;;;;;;;;;;;;;;;4993475;28;19956;-79
2023/05/15 02:55:34;;;;;;;;;;;;;;;;;;4994125;28;20398;-78
2023/05/15 02:58:00;;;;;;;;;;;;;;;;;;4994108;28;19921;-79
2023/05/15 03:00:28;;;;;;;;;;;;;;;;;;4994760;28;20372;-80
2023/05/15 03:02:54;;;;;;;;;;;;;;;;;;4993892;28;19924;-80
2023/05/15 03:05:19;;;;;;;;;;;;;;;;;;4995073;28;20001;-79
2023/05/15 03:07:45;;;;;;;;;;;;;;;;;;4993942;28;19920;-80
2023/05/15 03:10:10;;;;;;;;;;;;;;;;;;4994717;28;20382;-78
2023/05/15 03:12:36;;;;;;;;;;;;;;;;;;4994883;28;20388;-78
2023/05/15 03:15:01;;;;;;;;;;;;;;;;;;4994909;28;20350;-78
2023/05/15 03:17:27;;;;;;;;;;;;;;;;;;4994421;28;19914;-77
2023/05/15 03:19:52;;;;;;;;;;;;;;;;;;4994622;28;19973;-79
2023/05/15 03:22:18;;;;;;;;;;;;;;;;;;4993547;28;20344;-80
2023/05/15 03:24:43;;;;;;;;;;;;;;;;;;4994874;28;20385;-79
2023/05/15 03:27:08;;;;;;;;;;;;;;;;;;4994861;28;20429;-79
2023/05/15 03:29:37;;;;;;;;;;;;;;;;;;4994454;28;19964;-77
2023/05/15 03:32:02;;;;;;;;;;;;;;;;;;4988547;28;20332;-76
2023/05/15 03:34:28;;;;;;;;;;;;;;;;;;5014088;28;19980;-79
2023/05/15 03:36:53;;;;;;;;;;;;;;;;;;5014101;28;19979;-78
2023/05/15 03:39:19;;;;;;;;;;;;;;;;;;5014139;28;20059;-79
2023/05/15 03:41:44;;;;;;;;;;;;;;;;;;5013015;28;19917;-77
2023/05/15 03:44:10;;;;;;;;;;;;;;;;;;5013209;28;19913;-79
2023/05/15 03:46:35;;;;;;;;;;;;;;;;;;5013371;28;19913;-80
2023/05/15 03:49:01;;;;;;;;;;;;;;;;;;5012281;28;19918;-78
2023/05/15 03:51:26;;;;;;;;;;;;;;;;;;5014360;28;19997;-78
2023/05/15 03:53:52;;;;;;;;;;;;;;;;;;4996964;28;19924;-78
2023/05/15 03:56:20;;;;;;;;;;;;;;;;;;5013171;28;19941;-80
2023/05/15 03:58:46;;;;;;;;;;;;;;;;;;4997661;28;20343;-78
2023/05/15 04:01:11;;;;;;;;;;;;;;;;;;5014527;28;20369;-79
2023/05/15 04:03:36;;;;;;;;;;;;;;;;;;5014226;28;19952;-78
2023/05/15 04:06:02;;;;;;;;;;;;;;;;;;5018971;28;20351;-79
2023/05/15 04:08:27;;;;;;;;;;;;;;;;;;5017624;28;20365;-79
2023/05/15 04:10:53;;;;;;;;;;;;;;;;;;5019269;28;19921;-77
2023/05/15 04:13:18;;;;;;;;;;;;;;;;;;5023490;28;19912;-78
2023/05/15 04:15:44;;;;;;;;;;;;;;;;;;5031216;28;19918;-79
2023/05/15 04:18:09;;;;;;;;;;;;;;;;;;5028826;28;19913;-79
2023/05/15 04:20:34;;;;;;;;;;;;;;;;;;5024389;28;19948;-79
2023/05/15 04:23:00;;;;;;;;;;;;;;;;;;5017312;28;20009;-79
2023/05/15 04:25:28;;;;;;;;;;;;;;;;;;4993984;28;20285;-79
2023/05/15 04:27:56;;;;;;;;;;;;;;;;;;4992240;28;20385;-79
2023/05/15 04:30:22;;;;;;;;;;;;;;;;;;4992269;28;19971;-79
2023/05/15 04:32:47;;;;;;;;;;;;;;;;;;4976476;28;19959;-78
2023/05/15 04:35:14;;;;;;;;;;;;;;;;;;4993821;28;19913;-78
2023/05/15 04:37:39;;;;;;;;;;;;;;;;;;4976389;28;19929;-80
2023/05/15 04:40:06;;;;;;;;;;;;;;;;;;4991430;28;19918;-80
2023/05/15 04:42:31;;;;;;;;;;;;;;;;;;4976169;28;20293;-78
2023/05/15 04:44:57;;;;;;;;;;;;;;;;;;4975838;28;19914;-78
2023/05/15 04:47:22;;;;;;;;;;;;;;;;;;4992363;28;19925;-78
2023/05/15 04:49:48;;;;;;;;;;;;;;;;;;4992303;28;20304;-78
2023/05/15 04:52:14;;;;;;;;;;;;;;;;;;4992553;28;19969;-80
2023/05/15 04:54:39;;;;;;;;;;;;;;;;;;4976038;28;20365;-79
2023/05/15 04:57:05;;;;;;;;;;;;;;;;;;4995659;28;19918;-78
2023/05/15 04:59:30;;;;;;;;;;;;;;;;;;5004921;28;20308;-79
2023/05/15 05:01:56;;;;;;;;;;;;;;;;;;5010457;28;20300;-78
2023/05/15 05:04:22;;;;;;;;;;;;;;;;;;5011390;28;19921;-79
2023/05/15 05:06:47;;;;;;;;;;;;;;;;;;5011829;28;20264;-79
2023/05/15 05:09:12;;;;;;;;;;;;;;;;;;5012263;28;19918;-78
2023/05/15 05:11:38;;;;;;;;;;;;;;;;;;4995017;28;19913;-80
2023/05/15 05:14:03;;;;;;;;;;;;;;;;;;5011328;28;20408;-80
2023/05/15 05:16:29;;;;;;;;;;;;;;;;;;4997929;28;20264;-78
2023/05/15 05:19:20;;;;;;;;;;;;;;;;;;5019097;28;19936;-82
2023/05/15 05:21:48;;;;;;;;;;;;;;;;;;5019212;28;19913;-80
2023/05/15 05:24:14;;;;;;;;;;;;;;;;;;5000999;28;20332;-81
2023/05/15 05:26:40;;;;;;;;;;;;;;;;;;5018706;28;19968;-79
2023/05/15 05:29:05;;;;;;;;;;;;;;;;;;5018874;28;19925;-82
2023/05/15 05:31:30;;;;;;;;;;;;;;;;;;5018703;28;20373;-78
2023/05/15 05:33:59;;;;;;;;;;;;;;;;;;4997279;28;20052;-80
2023/05/15 05:36:25;;;;;;;;;;;;;;;;;;4999081;28;20104;-78
2023/05/15 05:38:50;;;;;;;;;;;;;;;;;;4997781;28;19917;-81
2023/05/15 05:41:16;;;;;;;;;;;;;;;;;;4998865;28;19968;-80
2023/05/15 05:43:41;;;;;;;;;;;;;;;;;;4998463;28;20000;-78
2023/05/15 05:46:07;;;;;;;;;;;;;;;;;;4997759;28;20427;-79
2023/05/15 05:48:32;;;;;;;;;;;;;;;;;;4997212;28;19913;-78
2023/05/15 05:50:57;;;;;;;;;;;;;;;;;;4997303;28;19952;-78
2023/05/15 05:53:23;;;;;;;;;;;;;;;;;;4997483;28;19957;-79
2023/05/15 05:55:48;;;;;;;;;;;;;;;;;;4998601;28;20337;-77
2023/05/15 05:58:16;;;;;;;;;;;;;;;;;;4997560;28;19914;-79
2023/05/15 06:00:41;;;;;;;;;;;;;;;;;;4998886;28;20388;-79
2023/05/15 06:03:08;;;;;;;;;;;;;;;;;;4998941;28;19917;-78
2023/05/15 06:05:36;;;;;;;;;;;;;;;;;;4999029;28;19914;-77
2023/05/15 06:08:03;;;;;;;;;;;;;;;;;;4997948;28;19914;-79
2023/05/15 06:10:28;;;;;;;;;;;;;;;;;;5017015;28;20385;-80
2023/05/15 06:12:54;;;;;;;;;;;;;;;;;;5020521;28;19920;-77
2023/05/15 06:15:19;;;;;;;;;;;;;;;;;;5016965;28;19913;-79
2023/05/15 06:17:45;;;;;;;;;;;;;;;;;;5018399;28;19917;-79
2023/05/15 06:20:10;;;;;;;;;;;;;;;;;;5000796;28;20343;-77
2023/05/15 06:22:36;;;;;;;;;;;;;;;;;;5001012;28;19945;-78
2023/05/15 06:25:04;;;;;;;;;;;;;;;;;;4999682;28;19917;-79
2023/05/15 06:27:31;;;;;;;;;;;;;;;;;;4996461;28;19917;-78
2023/05/15 06:29:56;;;;;;;;;;;;;;;;;;4993846;28;19918;-79
2023/05/15 06:32:22;;;;;;;;;;;;;;;;;;4994856;28;19993;-78
2023/05/15 06:34:50;;;;;;;;;;;;;;;;;;4995922;28;19914;-79
2023/05/15 06:37:16;;;;;;;;;;;;;;;;;;5001476;28;19914;-78
2023/05/15 06:39:41;;;;;;;;;;;;;;;;;;5013275;28;19913;-79
2023/05/15 06:42:06;;;;;;;;;;;;;;;;;;5015253;28;19922;-78
2023/05/15 06:44:33;;;;;;;;;;;;;;;;;;5014198;28;19913;-78
2023/05/15 06:46:58;;;;;;;;;;;;;;;;;;5015748;28;19920;-79
2023/05/15 06:49:24;;;;;;;;;;;;;;;;;;4998302;28;20026;-80
2023/05/15 06:51:49;;;;;;;;;;;;;;;;;;5015340;28;19913;-78
2023/05/15 06:54:15;;;;;;;;;;;;;;;;;;5013989;28;19968;-78
2023/05/15 06:56:40;;;;;;;;;;;;;;;;;;5016372;28;19917;-78
2023/05/15 06:59:06;;;;;;;;;;;;;;;;;;5015930;28;20340;-78
2023/05/15 07:01:32;;;;;;;;;;;;;;;;;;5019018;28;20373;-78
2023/05/15 07:03:57;;;;;;;;;;;;;;;;;;5018848;28;19960;-76
2023/05/15 07:06:22;;;;;;;;;;;;;;;;;;5018517;28;19940;-77
2023/05/15 07:08:48;;;;;;;;;;;;;;;;;;5021382;28;19913;-77
2023/05/15 07:11:13;;;;;;;;;;;;;;;;;;5009503;28;19910;-78
2023/05/15 07:13:39;;;;;;;;;;;;;;;;;;5012925;28;19914;-77
2023/05/15 07:16:04;;;;;;;;;;;;;;;;;;4999353;28;19925;-78
2023/05/15 07:18:29;;;;;;;;;;;;;;;;;;4995304;28;19991;-77
2023/05/15 07:21:01;;;;;;;;;;;;;;;;;;4994709;28;19914;-78
2023/05/15 07:23:27;;;;;;;;;;;;;;;;;;4995220;28;19914;-78
2023/05/15 07:25:52;;;;;;;;;;;;;;;;;;4994738;28;20440;-78
2023/05/15 07:28:17;;;;;;;;;;;;;;;;;;4994386;28;19914;-78
2023/05/15 07:30:43;;;;;;;;;;;;;;;;;;4993562;28;19917;-79
2023/05/15 07:33:11;;;;;;;;;;;;;;;;;;4995106;28;20054;-78
2023/05/15 07:35:36;;;;;;;;;;;;;;;;;;4994999;28;20413;-79
2023/05/15 07:38:02;;;;;;;;;;;;;;;;;;4993314;28;19914;-79
2023/05/15 07:40:33;;;;;;;;;;;;;;;;;;4976919;28;19914;-79
2023/05/15 07:42:59;;;;;;;;;;;;;;;;;;4993314;28;19914;-78
2023/05/15 07:45:24;;;;;;;;;;;;;;;;;;5000767;28;19980;-78
2023/05/15 07:47:50;;;;;;;;;;;;;;;;;;4994862;28;20004;-78
2023/05/15 07:50:15;;;;;;;;;;;;;;;;;;4976880;28;19922;-79
2023/05/15 07:52:41;;;;;;;;;;;;;;;;;;4992926;28;19921;-78
2023/05/15 07:55:10;;;;;;;;;;;;;;;;;;4992775;28;20007;-79
2023/05/15 07:57:36;;;;;;;;;;;;;;;;;;4993610;28;20203;-78
2023/05/15 08:00:07;;;;;;;;;;;;;;;;;;4991773;28;20397;-78
2023/05/15 08:02:37;;;;;;;;;;;;;;;;;;4992520;28;19925;-78
2023/05/15 08:05:02;;;;;;;;;;;;;;;;;;4993063;28;19913;-77
2023/05/15 08:07:32;;;;;;;;;;;;;;;;;;4991813;28;20013;-77
2023/05/15 08:10:04;;;;;;;;;;;;;;;;;;4993356;28;19918;-78
2023/05/15 08:12:30;;;;;;;;;;;;;;;;;;4992524;28;19914;-79
2023/05/15 08:14:55;;;;;;;;;;;;;;;;;;4993740;28;19921;-78
2023/05/15 08:17:23;;;;;;;;;;;;;;;;;;4992243;28;20128;-78
2023/05/15 08:19:48;;;;;;;;;;;;;;;;;;4993639;28;19914;-80
2023/05/15 08:22:13;;;;;;;;;;;;;;;;;;4994223;28;19925;-82
2023/05/15 08:24:39;;;;;;;;;;;;;;;;;;4975927;28;19910;-82
2023/05/15 08:27:05;;;;;;;;;;;;;;;;;;4997133;28;20356;-83
2023/05/15 08:29:30;;;;;;;;;;;;;;;;;;4996507;28;19922;-84
2023/05/15 08:31:58;;;;;;;;;;;;;;;;;;5012759;28;19933;-87
2023/05/15 08:34:24;;;;;;;;;;;;;;;;;;5019576;28;19912;-86
2023/05/15 08:36:49;;;;;;;;;;;;;;;;;;5036911;28;19922;-87
2023/05/15 08:39:15;;;;;;;;;;;;;;;;;;5020554;28;19929;-86
2023/05/15 08:41:40;;;;;;;;;;;;;;;;;;5019756;28;19977;-85
2023/05/15 08:44:06;;;;;;;;;;;;;;;;;;5035570;28;19960;-86
2023/05/15 08:46:31;;;;;;;;;;;;;;;;;;5036738;28;19928;-86
2023/05/15 08:48:57;;;;;;;;;;;;;;;;;;5036411;28;19928;-85
2023/05/15 08:51:25;;;;;;;;;;;;;;;;;;5022539;28;19922;-85
2023/05/15 08:53:51;;;;;;;;;;;;;;;;;;5012892;28;19914;-85
2023/05/15 08:56:16;;;;;;;;;;;;;;;;;;5006243;28;19920;-84
2023/05/15 08:58:42;;;;;;;;;;;;;;;;;;5001515;28;19913;-85
2023/05/15 09:01:07;;;;;;;;;;;;;;;;;;4995574;28;20277;-85
2023/05/15 09:03:32;;;;;;;;;;;;;;;;;;4994943;28;19921;-86
2023/05/15 09:05:58;;;;;;;;;;;;;;;;;;5031529;28;19924;-86
2023/05/15 09:08:23;;;;;;;;;;;;;;;;;;5005544;28;19913;-86
2023/05/15 09:10:49;;;;;;;;;;;;;;;;;;5015143;28;19917;-84
2023/05/15 09:13:16;;;;;;;;;;;;;;;;;;5003985;28;19917;-85
2023/05/15 09:15:41;;;;;;;;;;;;;;;;;;5002428;28;19936;-87
2023/05/15 09:18:06;;;;;;;;;;;;;;;;;;5001428;28;19913;-85
2023/05/15 09:20:32;;;;;;;;;;;;;;;;;;5016615;28;19921;-86
2023/05/15 09:22:57;;;;;;;;;;;;;;;;;;5007419;28;19940;-85
2023/05/15 09:25:24;;;;;;;;;;;;;;;;;;5289813;22;20501;-84
2023/05/15 09:27:51;;;;;;;;;;;;;;;;;;5035720;28;19929;-85
2023/05/15 09:30:22;;;;;;;;;;;;;;;;;;5023937;28;19922;-80
2023/05/15 09:32:47;;;;;;;;;;;;;;;;;;5010449;28;19921;-80
2023/05/15 09:35:13;;;;;;;;;;;;;;;;;;5011308;28;19913;-80
2023/05/15 09:37:41;;;;;;;;;;;;;;;;;;4995656;28;19913;-81
2023/05/15 09:40:08;;;;;;;;;;;;;;;;;;5012275;28;19993;-80
2023/05/15 09:42:33;;;;;;;;;;;;;;;;;;5012074;28;19913;-80
2023/05/15 09:44:59;;;;;;;;;;;;;;;;;;5012794;28;20392;-79
2023/05/15 09:47:24;;;;;;;;;;;;;;;;;;5012038;28;19917;-81
2023/05/15 09:49:50;;;;;;;;;;;;;;;;;;5012473;28;19928;-80
2023/05/15 09:52:16;;;;;;;;;;;;;;;;;;5015144;28;19979;-80
2023/05/15 09:54:41;;;;;;;;;;;;;;;;;;5013876;28;19913;-80
2023/05/15 09:57:10;;;;;;;;;;;;;;;;;;5023294;28;20003;-80
2023/05/15 09:59:35;;;;;;;;;;;;;;;;;;5001187;28;19921;-79
2023/05/15 10:02:01;;;;;;;;;;;;;;;;;;5006306;28;19920;-80
2023/05/15 10:04:26;;;;;;;;;;;;;;;;;;5030364;28;19984;-78
2023/05/15 10:06:52;;;;;;;;;;;;;;;;;;5030486;28;19927;-80
2023/05/15 10:09:21;;;;;;;;;;;;;;;;;;5011271;28;19960;-79
2023/05/15 10:11:49;;;;;;;;;;;;;;;;;;5018213;28;19920;-81
2023/05/15 10:14:20;;;;;;;;;;;;;;;;;;5018417;28;19923;-81
2023/05/15 10:16:46;;;;;;;;;;;;;;;;;;5015449;28;19914;-80
2023/05/15 10:19:11;;;;;;;;;;;;;;;;;;5014357;28;19921;-79
2023/05/15 10:21:37;;;;;;;;;;;;;;;;;;5015308;28;19921;-80
2023/05/15 10:24:03;;;;;;;;;;;;;;;;;;5011936;28;20000;-80
2023/05/15 10:26:37;;;;;;;;;;;;;;;;;;4996393;28;19972;-79
2023/05/15 10:29:06;;;;;;;;;;;;;;;;;;4995498;28;19917;-80
2023/05/15 10:31:31;;;;;;;;;;;;;;;;;;4996246;28;19968;-80
2023/05/15 10:33:56;;;;;;;;;;;;;;;;;;4996808;28;20292;-79
2023/05/15 10:36:22;;;;;;;;;;;;;;;;;;4995184;28;19910;-82
2023/05/15 10:38:47;;;;;;;;;;;;;;;;;;4996272;28;19975;-81
2023/05/15 10:41:13;;;;;;;;;;;;;;;;;;5008284;28;19967;-81
2023/05/15 10:43:38;;;;;;;;;;;;;;;;;;5014362;28;19918;-81
2023/05/15 10:46:04;;;;;;;;;;;;;;;;;;5013258;28;19913;-80
2023/05/15 10:48:29;;;;;;;;;;;;;;;;;;5015404;28;19921;-82
2023/05/15 10:50:57;;;;;;;;;;;;;;;;;;5016247;28;19921;-81
2023/05/15 10:53:23;;;;;;;;;;;;;;;;;;5015624;28;19920;-81
2023/05/15 10:55:50;;;;;;;;;;;;;;;;;;5015063;28;19920;-81
2023/05/15 10:58:19;;;;;;;;;;;;;;;;;;5017416;28;20404;-80
2023/05/15 11:00:47;;;;;;;;;;;;;;;;;;5016108;28;19960;-80
2023/05/15 11:03:13;;;;;;;;;;;;;;;;;;4999881;28;19920;-80
2023/05/15 11:05:38;;;;;;;;;;;;;;;;;;5016406;28;19913;-80
2023/05/15 11:08:06;;;;;;;;;;;;;;;;;;5017716;28;19936;-80
2023/05/15 11:10:32;;;;;;;;;;;;;;;;;;5014089;28;19960;-79
2023/05/15 11:13:03;;;;;;;;;;;;;;;;;;5014008;28;20250;-81
2023/05/15 11:15:29;;;;;;;;;;;;;;;;;;5013267;28;20269;-81
2023/05/15 11:17:54;;;;;;;;;;;;;;;;;;5015403;28;19913;-81
2023/05/15 11:20:20;;;;;;;;;;;;;;;;;;5015418;28;19913;-81
2023/05/15 11:22:48;;;;;;;;;;;;;;;;;;5013893;28;19963;-79
2023/05/15 11:25:22;;;;;;;;;;;;;;;;;;5015033;28;20261;-80
2023/05/15 11:27:55;;;;;;;;;;;;;;;;;;5017075;28;19980;-80
2023/05/15 11:30:21;;;;;;;;;;;;;;;;;;5015863;28;19917;-81
2023/05/15 11:32:46;;;;;;;;;;;;;;;;;;5018651;28;19913;-81
2023/05/15 11:35:12;;;;;;;;;;;;;;;;;;5017104;28;20327;-80
2023/05/15 11:37:40;;;;;;;;;;;;;;;;;;5017392;28;20284;-80
2023/05/15 11:40:09;;;;;;;;;;;;;;;;;;5016649;28;19913;-80
2023/05/15 11:42:35;;;;;;;;;;;;;;;;;;5014741;28;19914;-80
2023/05/15 11:45:00;;;;;;;;;;;;;;;;;;4996864;28;19921;-80
2023/05/15 11:47:25;;;;;;;;;;;;;;;;;;5012822;28;20133;-81
2023/05/15 11:49:51;;;;;;;;;;;;;;;;;;5014041;28;19918;-79
2023/05/15 11:52:16;;;;;;;;;;;;;;;;;;5014792;28;20325;-80
2023/05/15 11:54:42;;;;;;;;;;;;;;;;;;5014689;28;19919;-79
2023/05/15 11:57:07;;;;;;;;;;;;;;;;;;5014005;28;19917;-79
2023/05/15 11:59:39;;;;;;;;;;;;;;;;;;5013956;28;19924;-80
2023/05/15 12:02:04;;;;;;;;;;;;;;;;;;5013113;28;19926;-80
2023/05/15 12:04:30;;;;;;;;;;;;;;;;;;5022933;22;20367;-79
2023/05/15 12:06:56;;;;;;;;;;;;;;;;;;4996345;28;19971;-78
2023/05/15 12:09:26;;;;;;;;;;;;;;;;;;5011816;28;19953;-79
2023/05/15 12:11:51;;;;;;;;;;;;;;;;;;5012865;28;19913;-79
2023/05/15 12:14:16;;;;;;;;;;;;;;;;;;5012635;28;19921;-78
2023/05/15 12:16:42;;;;;;;;;;;;;;;;;;5012592;28;20000;-77
2023/05/15 12:19:11;;;;;;;;;;;;;;;;;;5013786;28;19913;-79
2023/05/15 12:21:41;;;;;;;;;;;;;;;;;;5014420;28;19913;-78
2023/05/15 12:24:34;;;;;;;;;;;;;;;;;;5029299;28;19920;-77
2023/05/15 12:27:25;;;;;;;;;;;;;;;;;;5025985;28;20008;-79
2023/05/15 12:30:15;;;;;;;;;;;;;;;;;;4992475;28;20276;-78
2023/05/15 12:32:41;;;;;;;;;;;;;;;;;;4993221;28;19913;-78
2023/05/15 12:35:06;;;;;;;;;;;;;;;;;;4994922;28;19921;-77
2023/05/15 12:37:33;;;;;;;;;;;;;;;;;;4995684;28;19914;-79
2023/05/15 12:40:02;;;;;;;;;;;;;;;;;;4997922;28;20006;-77
2023/05/15 12:42:28;;;;;;;;;;;;;;;;;;4996104;28;20340;-77
2023/05/15 12:44:54;;;;;;;;;;;;;;;;;;5002953;28;19918;-76
2023/05/15 12:47:20;;;;;;;;;;;;;;;;;;5003651;28;19914;-78
2023/05/15 12:49:45;;;;;;;;;;;;;;;;;;5005769;28;19945;-78
2023/05/15 12:52:12;;;;;;;;;;;;;;;;;;5003456;28;19918;-75
2023/05/15 12:54:37;;;;;;;;;;;;;;;;;;5001792;28;19980;-78
2023/05/15 12:57:28;;;;;;;;;;;;;;;;;;4998661;28;19918;-76
2023/05/15 13:00:04;;;;;;;;;;;;;;;;;;5003519;28;19925;-79
2023/05/15 13:02:30;;;;;;;;;;;;;;;;;;4996110;28;20288;-78
2023/05/15 13:04:55;;;;;;;;;;;;;;;;;;4994265;28;19929;-77
2023/05/15 13:07:21;;;;;;;;;;;;;;;;;;4993557;28;19914;-78
2023/05/15 13:09:52;;;;;;;;;;;;;;;;;;4991883;28;20004;-77
2023/05/15 13:12:17;;;;;;;;;;;;;;;;;;4993287;28;20001;-78
2023/05/15 13:14:43;;;;;;;;;;;;;;;;;;4992668;28;20007;-77
2023/05/15 13:17:08;;;;;;;;;;;;;;;;;;4993696;28;19918;-78
2023/05/15 13:19:37;;;;;;;;;;;;;;;;;;5007982;28;19941;-79
2023/05/15 13:22:03;;;;;;;;;;;;;;;;;;5002603;28;20361;-77
2023/05/15 13:24:28;;;;;;;;;;;;;;;;;;5012812;28;19924;-79
2023/05/15 13:26:54;;;;;;;;;;;;;;;;;;4979998;28;19913;-79
2023/05/15 13:29:19;;;;;;;;;;;;;;;;;;5013166;28;19988;-77
2023/05/15 13:31:47;;;;;;;;;;;;;;;;;;5012029;28;19913;-78
2023/05/15 13:34:15;;;;;;;;;;;;;;;;;;5012398;28;19971;-77
2023/05/15 13:36:40;;;;;;;;;;;;;;;;;;4998247;28;20351;-78
2023/05/15 13:39:08;;;;;;;;;;;;;;;;;;4998590;28;20293;-77
2023/05/15 13:41:34;;;;;;;;;;;;;;;;;;5016188;28;20321;-79
2023/05/15 13:44:02;;;;;;;;;;;;;;;;;;5015973;28;19914;-77
2023/05/15 13:46:33;;;;;;;;;;;;;;;;;;5017511;28;19913;-79
2023/05/15 13:49:04;;;;;;;;;;;;;;;;;;5004220;28;19959;-77
2023/05/15 13:51:39;;;;;;;;;;;;;;;;;;5008806;28;19967;-79
2023/05/15 13:54:06;;;;;;;;;;;;;;;;;;5021089;28;19996;-79
2023/05/15 13:56:37;;;;;;;;;;;;;;;;;;5007874;28;19913;-79
2023/05/15 13:59:06;;;;;;;;;;;;;;;;;;5004514;28;19920;-79
2023/05/15 14:01:31;;;;;;;;;;;;;;;;;;5020904;28;19991;-79
2023/05/15 14:03:59;;;;;;;;;;;;;;;;;;5016189;28;19992;-79
2023/05/15 14:06:26;;;;;;;;;;;;;;;;;;5016648;28;19959;-78
2023/05/15 14:08:51;;;;;;;;;;;;;;;;;;5015372;28;20322;-76
2023/05/15 14:11:42;;;;;;;;;;;;;;;;;;5015863;28;19924;-78
2023/05/15 14:14:08;;;;;;;;;;;;;;;;;;5014665;28;19918;-77
2023/05/15 14:16:36;;;;;;;;;;;;;;;;;;5010786;28;20360;-77
2023/05/15 14:19:01;;;;;;;;;;;;;;;;;;4994687;28;19920;-78
2023/05/15 14:21:27;;;;;;;;;;;;;;;;;;4996405;28;19954;-77
2023/05/15 14:23:54;;;;;;;;;;;;;;;;;;5011142;28;20039;-78
2023/05/15 14:26:45;;;;;;;;;;;;;;;;;;5013981;28;20361;-78
2023/05/15 14:29:11;;;;;;;;;;;;;;;;;;5013675;28;19913;-79
2023/05/15 14:31:37;;;;;;;;;;;;;;;;;;5014737;28;20248;-77
2023/05/15 14:34:05;;;;;;;;;;;;;;;;;;5014243;28;19913;-79
2023/05/15 14:36:56;;;;;;;;;;;;;;;;;;5015441;28;19965;-78
2023/05/15 14:39:50;;;;;;;;;;;;;;;;;;5015750;28;19921;-77
2023/05/15 14:42:17;;;;;;;;;;;;;;;;;;5029369;28;19990;-79
2023/05/15 14:44:43;;;;;;;;;;;;;;;;;;5034795;28;19920;-79
2023/05/15 14:47:11;;;;;;;;;;;;;;;;;;5036065;28;20012;-78
2023/05/15 14:49:36;;;;;;;;;;;;;;;;;;5032134;28;20007;-78
2023/05/15 14:52:01;;;;;;;;;;;;;;;;;;5001341;28;19959;-79
2023/05/15 14:54:27;;;;;;;;;;;;;;;;;;5034635;28;20237;-78
2023/05/15 14:56:52;;;;;;;;;;;;;;;;;;5032931;28;19921;-79
2023/05/15 14:59:18;;;;;;;;;;;;;;;;;;5034810;28;19917;-79
2023/05/15 15:01:43;;;;;;;;;;;;;;;;;;5035444;28;19968;-78
2023/05/15 15:04:08;;;;;;;;;;;;;;;;;;5034484;28;19927;-79
2023/05/15 15:06:34;;;;;;;;;;;;;;;;;;5034250;28;20304;-77
2023/05/15 15:08:59;;;;;;;;;;;;;;;;;;5034782;28;20008;-78
2023/05/15 15:11:25;;;;;;;;;;;;;;;;;;5016904;28;20202;-79
2023/05/15 15:13:50;;;;;;;;;;;;;;;;;;5034567;28;19924;-77
2023/05/15 15:16:16;;;;;;;;;;;;;;;;;;5025347;28;19925;-77
2023/05/15 15:18:41;;;;;;;;;;;;;;;;;;4994627;28;20381;-78
2023/05/15 15:21:10;;;;;;;;;;;;;;;;;;5010291;28;19914;-78
2023/05/15 15:23:35;;;;;;;;;;;;;;;;;;5005290;28;19921;-78
2023/05/15 15:26:01;;;;;;;;;;;;;;;;;;5018479;28;19913;-77
2023/05/15 15:28:28;;;;;;;;;;;;;;;;;;5018343;28;20318;-79
2023/05/15 15:30:53;;;;;;;;;;;;;;;;;;5014354;28;19917;-77
2023/05/15 15:33:18;;;;;;;;;;;;;;;;;;5001967;28;19996;-78
2023/05/15 15:35:44;;;;;;;;;;;;;;;;;;5006418;28;19964;-78
2023/05/15 15:38:12;;;;;;;;;;;;;;;;;;5008280;28;19913;-77
2023/05/15 15:40:37;;;;;;;;;;;;;;;;;;4992750;28;19918;-78
2023/05/15 15:43:03;;;;;;;;;;;;;;;;;;5011679;28;19988;-78
2023/05/15 15:45:28;;;;;;;;;;;;;;;;;;4995771;28;19917;-77
2023/05/15 15:48:21;;;;;;;;;;;;;;;;;;5008588;28;19910;-77
2023/05/15 15:50:46;;;;;;;;;;;;;;;;;;5006806;28;19918;-77
2023/05/15 15:53:12;;;;;;;;;;;;;;;;;;5007064;28;19952;-78
2023/05/15 15:55:38;;;;;;;;;;;;;;;;;;5031480;28;19921;-78
2023/05/15 15:58:03;;;;;;;;;;;;;;;;;;5033614;28;19917;-77
2023/05/15 16:00:29;;;;;;;;;;;;;;;;;;5031510;28;20454;-77
2023/05/15 16:02:58;;;;;;;;;;;;;;;;;;5032416;28;19913;-79
2023/05/15 16:05:48;;;;;;;;;;;;;;;;;;5033812;28;20390;-78
2023/05/15 16:08:13;;;;;;;;;;;;;;;;;;5033617;28;19917;-78
2023/05/15 16:10:39;;;;;;;;;;;;;;;;;;5015928;28;20339;-78
2023/05/15 16:13:07;;;;;;;;;;;;;;;;;;5032661;28;20185;-80
2023/05/15 16:15:35;;;;;;;;;;;;;;;;;;5028847;28;19914;-78
2023/05/15 16:18:26;;;;;;;;;;;;;;;;;;4994144;28;19913;-79
2023/05/15 16:21:42;;;;;;;;;;;;;;;;;;4993618;28;19920;-78
2023/05/15 16:24:34;;;;;;;;;;;;;;;;;;4993670;28;20448;-79
2023/05/15 16:27:25;;;;;;;;;;;;;;;;;;4992736;28;19918;-78
2023/05/15 16:29:51;;;;;;;;;;;;;;;;;;4980965;28;20423;-78
2023/05/15 16:32:17;;;;;;;;;;;;;;;;;;4994007;28;20453;-79
2023/05/15 16:34:42;;;;;;;;;;;;;;;;;;4992601;28;20008;-79
2023/05/15 16:37:11;;;;;;;;;;;;;;;;;;4992813;28;19929;-76
2023/05/15 16:39:39;;;;;;;;;;;;;;;;;;4993374;28;19936;-78
2023/05/15 16:42:05;;;;;;;;;;;;;;;;;;4992668;28;20333;-78
2023/05/15 16:44:31;;;;;;;;;;;;;;;;;;4992186;28;19961;-79